Tinker Air Force Base
KTIK : now visible

Airfield :











YOU CAN JOIN US ON...

 
LOGIN :

Register | Disclaimer

   EN    FR    IT 

 









Legend :    VFR   Marginal VFR   IFR   Intensive IFR   Very Intensive IFR
Visi :
Ceiling :
>= 8 km
>= 3000ft
5 to 8 km
1000 to 3000 ft
1500m to 5 km
500 to 1000 ft
800 to 1500m
200 to 500 ft
< 800m
< 200 ft
Symbols :   Thunderstorms  Fog  Heavy snow  Heavy precipitations  Wind > 20 kt






- Airport Elevation : 1291 ft


KTIK - Tinker Air Force Base

CURRENT METAR :
  • 140056Z AUTO 21003KT 10SM CLR 10/02 A2983 RMK AO2 SLP111 T01000016

EXPIRED METARs :
  • 132356Z AUTO 31005KT 10SM FEW170 12/02 A2984 RMK AO2 SLP114 T01180017 10156 20112 51015
  • 132256Z AUTO 23003KT 10SM CLR 14/02 A2980 RMK AO2 SLP099 T01380024

TAF TAF KTIK
Valid from the 13 at 18:00 until the 15 at 00:00 UTC


131800Z 1318/1424 23006KT 9999 FEW100 QNH2983INS
BECMG 1408/1409 32012KT 9999 SKC 510052 QNH2985INS
BECMG 1414/1415 VRB06KT 9999 FEW100 SCT150 QNH2985INS TX16/1321Z TN03/1412Z



MET'MAP, your aeronautical weather chart ! - Copyright ORBIFLY December 2007 - Disclaimer

ORBIFLY MET'MAP TEAM :

Programming & Development : Alexandra Zaïnal
Concept & original design : Baudouin d'Aumeries
Assistance for programming : Marc-Olivier Méhu
Technical & hardware support : Manuel Goepfert

Contact : metmap@orbifly.com




SOURCES & CREDITS :

   NOAA       Earth
Advisory